sensor_id;sensor_type;location;lat;lon;timestamp;P1;durP1;ratioP1;P2;durP2;ratioP2
41903;SDS011;27586;51.124;4.182;2024-01-30T00:01:58;12.05;;;9.88;;
41903;SDS011;27586;51.124;4.182;2024-01-30T00:04:24;13.93;;;9.48;;
41903;SDS011;27586;51.124;4.182;2024-01-30T00:06:50;12.15;;;8.95;;
41903;SDS011;27586;51.124;4.182;2024-01-30T00:09:24;13.55;;;9.20;;
41903;SDS011;27586;51.124;4.182;2024-01-30T00:11:50;11.00;;;9.25;;
41903;SDS011;27586;51.124;4.182;2024-01-30T00:14:16;13.23;;;9.00;;
41903;SDS011;27586;51.124;4.182;2024-01-30T00:16:41;12.77;;;8.77;;
41903;SDS011;27586;51.124;4.182;2024-01-30T00:19:07;10.38;;;8.82;;
41903;SDS011;27586;51.124;4.182;2024-01-30T00:21:33;11.75;;;8.18;;
41903;SDS011;27586;51.124;4.182;2024-01-30T00:23:59;11.80;;;9.00;;
41903;SDS011;27586;51.124;4.182;2024-01-30T00:26:25;9.80;;;8.52;;
41903;SDS011;27586;51.124;4.182;2024-01-30T00:28:50;10.60;;;8.93;;
41903;SDS011;27586;51.124;4.182;2024-01-30T00:31:16;9.85;;;8.02;;
41903;SDS011;27586;51.124;4.182;2024-01-30T00:33:42;10.00;;;8.23;;
41903;SDS011;27586;51.124;4.182;2024-01-30T00:36:08;10.25;;;8.30;;
41903;SDS011;27586;51.124;4.182;2024-01-30T00:38:37;11.05;;;8.07;;
41903;SDS011;27586;51.124;4.182;2024-01-30T00:41:08;10.98;;;8.40;;
41903;SDS011;27586;51.124;4.182;2024-01-30T00:43:34;10.30;;;8.80;;
41903;SDS011;27586;51.124;4.182;2024-01-30T00:46:03;10.82;;;8.20;;
41903;SDS011;27586;51.124;4.182;2024-01-30T00:48:29;9.07;;;8.18;;
41903;SDS011;27586;51.124;4.182;2024-01-30T00:50:55;8.80;;;7.82;;
41903;SDS011;27586;51.124;4.182;2024-01-30T00:53:21;8.40;;;7.60;;
41903;SDS011;27586;51.124;4.182;2024-01-30T00:55:47;8.65;;;7.78;;
41903;SDS011;27586;51.124;4.182;2024-01-30T00:58:13;9.60;;;8.27;;
41903;SDS011;27586;51.124;4.182;2024-01-30T01:00:39;11.18;;;8.15;;
41903;SDS011;27586;51.124;4.182;2024-01-30T01:03:05;10.23;;;7.95;;
41903;SDS011;27586;51.124;4.182;2024-01-30T01:05:30;9.70;;;7.97;;
41903;SDS011;27586;51.124;4.182;2024-01-30T01:07:56;9.25;;;7.90;;
41903;SDS011;27586;51.124;4.182;2024-01-30T01:10:22;9.80;;;7.97;;
41903;SDS011;27586;51.124;4.182;2024-01-30T01:12:48;11.18;;;8.48;;
41903;SDS011;27586;51.124;4.182;2024-01-30T01:15:14;9.27;;;7.63;;
41903;SDS011;27586;51.124;4.182;2024-01-30T01:17:40;8.70;;;7.80;;
41903;SDS011;27586;51.124;4.182;2024-01-30T01:20:06;10.38;;;7.97;;
41903;SDS011;27586;51.124;4.182;2024-01-30T01:22:32;9.57;;;7.47;;
41903;SDS011;27586;51.124;4.182;2024-01-30T01:24:59;9.00;;;7.50;;
41903;SDS011;27586;51.124;4.182;2024-01-30T01:27:25;8.82;;;7.50;;
41903;SDS011;27586;51.124;4.182;2024-01-30T01:29:51;8.85;;;8.05;;
41903;SDS011;27586;51.124;4.182;2024-01-30T01:32:17;10.35;;;7.95;;
41903;SDS011;27586;51.124;4.182;2024-01-30T01:34:43;9.38;;;7.40;;
41903;SDS011;27586;51.124;4.182;2024-01-30T01:37:09;8.27;;;7.47;;
41903;SDS011;27586;51.124;4.182;2024-01-30T01:39:35;9.80;;;7.60;;
41903;SDS011;27586;51.124;4.182;2024-01-30T01:42:01;9.77;;;7.88;;
41903;SDS011;27586;51.124;4.182;2024-01-30T01:44:27;9.25;;;7.75;;
41903;SDS011;27586;51.124;4.182;2024-01-30T01:46:54;8.77;;;7.47;;
41903;SDS011;27586;51.124;4.182;2024-01-30T01:49:24;8.90;;;7.85;;
41903;SDS011;27586;51.124;4.182;2024-01-30T01:51:52;8.18;;;7.43;;
41903;SDS011;27586;51.124;4.182;2024-01-30T01:54:21;7.75;;;6.95;;
41903;SDS011;27586;51.124;4.182;2024-01-30T01:56:48;9.73;;;6.90;;
41903;SDS011;27586;51.124;4.182;2024-01-30T01:59:14;9.02;;;7.22;;
41903;SDS011;27586;51.124;4.182;2024-01-30T02:01:41;7.53;;;6.75;;
41903;SDS011;27586;51.124;4.182;2024-01-30T02:04:08;8.95;;;6.78;;
41903;SDS011;27586;51.124;4.182;2024-01-30T02:06:36;7.80;;;6.95;;
41903;SDS011;27586;51.124;4.182;2024-01-30T02:09:03;9.23;;;7.75;;
41903;SDS011;27586;51.124;4.182;2024-01-30T02:11:29;10.18;;;7.45;;
41903;SDS011;27586;51.124;4.182;2024-01-30T02:13:56;7.75;;;7.00;;
41903;SDS011;27586;51.124;4.182;2024-01-30T02:16:22;8.15;;;7.30;;
41903;SDS011;27586;51.124;4.182;2024-01-30T02:18:47;9.27;;;7.53;;
41903;SDS011;27586;51.124;4.182;2024-01-30T02:21:16;7.63;;;6.90;;
41903;SDS011;27586;51.124;4.182;2024-01-30T02:23:43;9.27;;;7.28;;
41903;SDS011;27586;51.124;4.182;2024-01-30T02:26:09;8.82;;;7.40;;
41903;SDS011;27586;51.124;4.182;2024-01-30T02:28:36;8.43;;;7.63;;
41903;SDS011;27586;51.124;4.182;2024-01-30T02:31:02;8.23;;;7.43;;
41903;SDS011;27586;51.124;4.182;2024-01-30T02:33:28;9.63;;;7.28;;
41903;SDS011;27586;51.124;4.182;2024-01-30T02:35:54;9.40;;;7.30;;
41903;SDS011;27586;51.124;4.182;2024-01-30T02:38:20;8.57;;;7.63;;
41903;SDS011;27586;51.124;4.182;2024-01-30T02:40:48;8.00;;;7.20;;
41903;SDS011;27586;51.124;4.182;2024-01-30T02:43:17;8.02;;;7.05;;
41903;SDS011;27586;51.124;4.182;2024-01-30T02:45:43;8.48;;;7.00;;
41903;SDS011;27586;51.124;4.182;2024-01-30T02:48:08;9.23;;;7.22;;
41903;SDS011;27586;51.124;4.182;2024-01-30T02:50:34;7.55;;;6.78;;
41903;SDS011;27586;51.124;4.182;2024-01-30T02:53:00;8.55;;;6.80;;
41903;SDS011;27586;51.124;4.182;2024-01-30T02:55:25;7.50;;;6.80;;
41903;SDS011;27586;51.124;4.182;2024-01-30T02:57:51;9.38;;;7.07;;
41903;SDS011;27586;51.124;4.182;2024-01-30T03:00:17;7.80;;;7.00;;
41903;SDS011;27586;51.124;4.182;2024-01-30T03:02:44;7.03;;;6.40;;
41903;SDS011;27586;51.124;4.182;2024-01-30T03:05:10;7.68;;;6.60;;
41903;SDS011;27586;51.124;4.182;2024-01-30T03:07:36;8.90;;;7.60;;
41903;SDS011;27586;51.124;4.182;2024-01-30T03:10:01;9.00;;;6.35;;
41903;SDS011;27586;51.124;4.182;2024-01-30T03:12:30;7.88;;;7.07;;
41903;SDS011;27586;51.124;4.182;2024-01-30T03:14:56;10.63;;;7.07;;
41903;SDS011;27586;51.124;4.182;2024-01-30T03:17:21;7.55;;;6.75;;
41903;SDS011;27586;51.124;4.182;2024-01-30T03:19:47;7.60;;;6.80;;
41903;SDS011;27586;51.124;4.182;2024-01-30T03:22:13;8.05;;;6.65;;
41903;SDS011;27586;51.124;4.182;2024-01-30T03:24:38;7.65;;;6.88;;
41903;SDS011;27586;51.124;4.182;2024-01-30T03:27:04;7.45;;;6.68;;
41903;SDS011;27586;51.124;4.182;2024-01-30T03:29:29;9.13;;;6.53;;
41903;SDS011;27586;51.124;4.182;2024-01-30T03:31:55;7.03;;;6.28;;
41903;SDS011;27586;51.124;4.182;2024-01-30T03:34:21;7.28;;;6.57;;
41903;SDS011;27586;51.124;4.182;2024-01-30T03:36:46;8.25;;;7.10;;
41903;SDS011;27586;51.124;4.182;2024-01-30T03:39:12;7.35;;;6.65;;
41903;SDS011;27586;51.124;4.182;2024-01-30T03:41:37;8.15;;;6.78;;
41903;SDS011;27586;51.124;4.182;2024-01-30T03:44:06;7.78;;;6.97;;
41903;SDS011;27586;51.124;4.182;2024-01-30T03:46:32;8.57;;;7.20;;
41903;SDS011;27586;51.124;4.182;2024-01-30T03:48:57;9.27;;;6.68;;
41903;SDS011;27586;51.124;4.182;2024-01-30T03:51:23;7.32;;;6.63;;
41903;SDS011;27586;51.124;4.182;2024-01-30T03:53:49;7.82;;;6.85;;
41903;SDS011;27586;51.124;4.182;2024-01-30T03:56:15;8.93;;;6.93;;
41903;SDS011;27586;51.124;4.182;2024-01-30T03:58:40;7.68;;;6.57;;
41903;SDS011;27586;51.124;4.182;2024-01-30T04:01:06;7.22;;;6.50;;
41903;SDS011;27586;51.124;4.182;2024-01-30T04:03:32;7.45;;;6.63;;
41903;SDS011;27586;51.124;4.182;2024-01-30T04:05:58;8.77;;;6.60;;
41903;SDS011;27586;51.124;4.182;2024-01-30T04:08:23;7.97;;;6.07;;
41903;SDS011;27586;51.124;4.182;2024-01-30T04:10:49;7.20;;;6.50;;
41903;SDS011;27586;51.124;4.182;2024-01-30T04:13:15;9.20;;;6.35;;
41903;SDS011;27586;51.124;4.182;2024-01-30T04:15:40;10.45;;;6.57;;
41903;SDS011;27586;51.124;4.182;2024-01-30T04:18:06;7.88;;;6.03;;
41903;SDS011;27586;51.124;4.182;2024-01-30T04:20:32;6.75;;;5.82;;
41903;SDS011;27586;51.124;4.182;2024-01-30T04:22:57;7.00;;;6.30;;
41903;SDS011;27586;51.124;4.182;2024-01-30T04:25:23;6.72;;;6.05;;
41903;SDS011;27586;51.124;4.182;2024-01-30T04:27:49;6.95;;;6.25;;
41903;SDS011;27586;51.124;4.182;2024-01-30T04:30:14;6.65;;;6.05;;
41903;SDS011;27586;51.124;4.182;2024-01-30T04:32:41;7.70;;;6.90;;
41903;SDS011;27586;51.124;4.182;2024-01-30T04:35:06;7.53;;;6.63;;
41903;SDS011;27586;51.124;4.182;2024-01-30T04:37:32;6.85;;;5.90;;
41903;SDS011;27586;51.124;4.182;2024-01-30T04:39:58;7.28;;;6.57;;
41903;SDS011;27586;51.124;4.182;2024-01-30T04:42:23;7.65;;;6.95;;
41903;SDS011;27586;51.124;4.182;2024-01-30T04:44:49;8.73;;;6.60;;
41903;SDS011;27586;51.124;4.182;2024-01-30T04:47:15;8.55;;;6.82;;
41903;SDS011;27586;51.124;4.182;2024-01-30T04:49:41;7.00;;;6.30;;
41903;SDS011;27586;51.124;4.182;2024-01-30T04:52:07;7.57;;;6.53;;
41903;SDS011;27586;51.124;4.182;2024-01-30T04:54:33;8.50;;;7.18;;
41903;SDS011;27586;51.124;4.182;2024-01-30T04:57:00;7.80;;;7.03;;
41903;SDS011;27586;51.124;4.182;2024-01-30T04:59:26;7.13;;;6.43;;
41903;SDS011;27586;51.124;4.182;2024-01-30T05:01:52;7.18;;;6.47;;
41903;SDS011;27586;51.124;4.182;2024-01-30T05:04:17;7.20;;;6.50;;
41903;SDS011;27586;51.124;4.182;2024-01-30T05:06:43;8.07;;;6.72;;
41903;SDS011;27586;51.124;4.182;2024-01-30T05:09:09;7.20;;;6.50;;
41903;SDS011;27586;51.124;4.182;2024-01-30T05:11:38;8.23;;;6.90;;
41903;SDS011;27586;51.124;4.182;2024-01-30T05:14:04;8.27;;;6.65;;
41903;SDS011;27586;51.124;4.182;2024-01-30T05:16:31;8.07;;;6.47;;
41903;SDS011;27586;51.124;4.182;2024-01-30T05:18:57;7.28;;;6.55;;
41903;SDS011;27586;51.124;4.182;2024-01-30T05:21:23;7.18;;;6.43;;
41903;SDS011;27586;51.124;4.182;2024-01-30T05:23:49;7.50;;;6.57;;
41903;SDS011;27586;51.124;4.182;2024-01-30T05:26:14;8.10;;;6.47;;
41903;SDS011;27586;51.124;4.182;2024-01-30T05:28:40;6.75;;;6.15;;
41903;SDS011;27586;51.124;4.182;2024-01-30T05:31:06;6.80;;;6.13;;
41903;SDS011;27586;51.124;4.182;2024-01-30T05:33:31;7.28;;;6.53;;
41903;SDS011;27586;51.124;4.182;2024-01-30T05:36:00;7.95;;;6.70;;
41903;SDS011;27586;51.124;4.182;2024-01-30T05:38:26;7.72;;;7.00;;
41903;SDS011;27586;51.124;4.182;2024-01-30T05:40:51;7.63;;;6.40;;
41903;SDS011;27586;51.124;4.182;2024-01-30T05:43:17;7.70;;;6.25;;
41903;SDS011;27586;51.124;4.182;2024-01-30T05:45:43;7.05;;;6.35;;
41903;SDS011;27586;51.124;4.182;2024-01-30T05:48:08;7.45;;;6.53;;
41903;SDS011;27586;51.124;4.182;2024-01-30T05:50:37;9.57;;;6.78;;
41903;SDS011;27586;51.124;4.182;2024-01-30T05:53:02;7.53;;;6.53;;
41903;SDS011;27586;51.124;4.182;2024-01-30T05:55:28;6.25;;;5.60;;
41903;SDS011;27586;51.124;4.182;2024-01-30T05:57:57;7.00;;;6.30;;
41903;SDS011;27586;51.124;4.182;2024-01-30T06:00:23;7.57;;;6.72;;
41903;SDS011;27586;51.124;4.182;2024-01-30T06:02:49;7.55;;;6.20;;
41903;SDS011;27586;51.124;4.182;2024-01-30T06:05:14;7.20;;;6.25;;
41903;SDS011;27586;51.124;4.182;2024-01-30T06:07:40;6.50;;;5.90;;
41903;SDS011;27586;51.124;4.182;2024-01-30T06:10:06;8.60;;;6.60;;
41903;SDS011;27586;51.124;4.182;2024-01-30T06:12:33;8.82;;;6.72;;
41903;SDS011;27586;51.124;4.182;2024-01-30T06:15:02;8.95;;;7.00;;
41903;SDS011;27586;51.124;4.182;2024-01-30T06:17:28;8.30;;;6.35;;
41903;SDS011;27586;51.124;4.182;2024-01-30T06:19:54;8.93;;;6.78;;
41903;SDS011;27586;51.124;4.182;2024-01-30T06:22:23;7.55;;;6.70;;
41903;SDS011;27586;51.124;4.182;2024-01-30T06:24:49;7.55;;;6.70;;
41903;SDS011;27586;51.124;4.182;2024-01-30T06:27:14;7.57;;;6.32;;
41903;SDS011;27586;51.124;4.182;2024-01-30T06:29:41;7.35;;;6.60;;
41903;SDS011;27586;51.124;4.182;2024-01-30T06:32:08;7.35;;;6.22;;
41903;SDS011;27586;51.124;4.182;2024-01-30T06:34:33;7.63;;;6.50;;
41903;SDS011;27586;51.124;4.182;2024-01-30T06:37:03;7.20;;;6.60;;
41903;SDS011;27586;51.124;4.182;2024-01-30T06:39:29;8.27;;;7.05;;
41903;SDS011;27586;51.124;4.182;2024-01-30T06:41:55;8.52;;;7.32;;
41903;SDS011;27586;51.124;4.182;2024-01-30T06:44:20;6.80;;;6.18;;
41903;SDS011;27586;51.124;4.182;2024-01-30T06:46:46;8.40;;;6.80;;
41903;SDS011;27586;51.124;4.182;2024-01-30T06:49:11;8.23;;;6.80;;
41903;SDS011;27586;51.124;4.182;2024-01-30T06:51:37;8.48;;;6.70;;
41903;SDS011;27586;51.124;4.182;2024-01-30T06:54:03;8.05;;;6.72;;
41903;SDS011;27586;51.124;4.182;2024-01-30T06:56:29;7.13;;;6.40;;
41903;SDS011;27586;51.124;4.182;2024-01-30T06:58:54;7.47;;;6.68;;
41903;SDS011;27586;51.124;4.182;2024-01-30T07:01:20;7.57;;;6.82;;
41903;SDS011;27586;51.124;4.182;2024-01-30T07:03:52;7.70;;;6.35;;
41903;SDS011;27586;51.124;4.182;2024-01-30T07:06:17;7.47;;;6.57;;
41903;SDS011;27586;51.124;4.182;2024-01-30T07:08:43;8.07;;;6.55;;
41903;SDS011;27586;51.124;4.182;2024-01-30T07:11:09;7.78;;;6.97;;
41903;SDS011;27586;51.124;4.182;2024-01-30T07:13:34;7.13;;;6.22;;
41903;SDS011;27586;51.124;4.182;2024-01-30T07:16:00;8.43;;;6.60;;
41903;SDS011;27586;51.124;4.182;2024-01-30T07:18:26;7.22;;;6.13;;
41903;SDS011;27586;51.124;4.182;2024-01-30T07:20:52;7.72;;;6.63;;
41903;SDS011;27586;51.124;4.182;2024-01-30T07:23:17;6.88;;;6.18;;
41903;SDS011;27586;51.124;4.182;2024-01-30T07:25:46;6.95;;;6.22;;
41903;SDS011;27586;51.124;4.182;2024-01-30T07:28:15;7.40;;;6.22;;
41903;SDS011;27586;51.124;4.182;2024-01-30T07:30:43;7.15;;;6.45;;
41903;SDS011;27586;51.124;4.182;2024-01-30T07:33:09;8.48;;;6.93;;
41903;SDS011;27586;51.124;4.182;2024-01-30T07:35:36;6.88;;;6.18;;
41903;SDS011;27586;51.124;4.182;2024-01-30T07:38:02;8.40;;;7.20;;
41903;SDS011;27586;51.124;4.182;2024-01-30T07:40:28;7.45;;;6.75;;
41903;SDS011;27586;51.124;4.182;2024-01-30T07:42:58;7.85;;;6.63;;
41903;SDS011;27586;51.124;4.182;2024-01-30T07:45:23;7.38;;;6.68;;
41903;SDS011;27586;51.124;4.182;2024-01-30T07:47:50;7.60;;;6.50;;
41903;SDS011;27586;51.124;4.182;2024-01-30T07:50:16;8.52;;;6.40;;
41903;SDS011;27586;51.124;4.182;2024-01-30T07:52:42;8.18;;;7.32;;
41903;SDS011;27586;51.124;4.182;2024-01-30T07:55:08;9.15;;;6.90;;
41903;SDS011;27586;51.124;4.182;2024-01-30T07:57:34;7.35;;;6.65;;
41903;SDS011;27586;51.124;4.182;2024-01-30T08:00:00;7.20;;;6.50;;
41903;SDS011;27586;51.124;4.182;2024-01-30T08:02:28;7.47;;;6.68;;
41903;SDS011;27586;51.124;4.182;2024-01-30T08:04:53;8.10;;;6.25;;
41903;SDS011;27586;51.124;4.182;2024-01-30T08:07:19;8.20;;;6.88;;
41903;SDS011;27586;51.124;4.182;2024-01-30T08:09:47;7.88;;;6.85;;
41903;SDS011;27586;51.124;4.182;2024-01-30T08:12:12;9.07;;;6.65;;
41903;SDS011;27586;51.124;4.182;2024-01-30T08:14:38;8.50;;;6.63;;
41903;SDS011;27586;51.124;4.182;2024-01-30T08:17:06;8.75;;;6.63;;
41903;SDS011;27586;51.124;4.182;2024-01-30T08:19:32;9.93;;;6.80;;
41903;SDS011;27586;51.124;4.182;2024-01-30T08:21:58;8.25;;;6.70;;
41903;SDS011;27586;51.124;4.182;2024-01-30T08:24:24;7.63;;;6.53;;
41903;SDS011;27586;51.124;4.182;2024-01-30T08:26:50;10.45;;;7.38;;
41903;SDS011;27586;51.124;4.182;2024-01-30T08:29:15;8.20;;;7.05;;
41903;SDS011;27586;51.124;4.182;2024-01-30T08:31:41;7.70;;;7.00;;
41903;SDS011;27586;51.124;4.182;2024-01-30T08:34:07;7.70;;;6.90;;
41903;SDS011;27586;51.124;4.182;2024-01-30T08:36:33;10.73;;;7.25;;
41903;SDS011;27586;51.124;4.182;2024-01-30T08:38:58;9.35;;;7.13;;
41903;SDS011;27586;51.124;4.182;2024-01-30T08:41:24;8.82;;;7.10;;
41903;SDS011;27586;51.124;4.182;2024-01-30T08:43:50;7.10;;;6.40;;
41903;SDS011;27586;51.124;4.182;2024-01-30T08:46:19;8.63;;;7.15;;
41903;SDS011;27586;51.124;4.182;2024-01-30T08:48:45;7.70;;;6.50;;
41903;SDS011;27586;51.124;4.182;2024-01-30T08:51:12;8.50;;;6.95;;
41903;SDS011;27586;51.124;4.182;2024-01-30T08:53:39;12.48;;;8.52;;
41903;SDS011;27586;51.124;4.182;2024-01-30T08:56:05;10.65;;;8.63;;
41903;SDS011;27586;51.124;4.182;2024-01-30T08:58:31;9.20;;;8.10;;
41903;SDS011;27586;51.124;4.182;2024-01-30T09:00:58;11.30;;;8.32;;
41903;SDS011;27586;51.124;4.182;2024-01-30T09:03:24;10.60;;;8.40;;
41903;SDS011;27586;51.124;4.182;2024-01-30T09:05:56;12.85;;;8.80;;
41903;SDS011;27586;51.124;4.182;2024-01-30T09:08:25;11.63;;;8.20;;
41903;SDS011;27586;51.124;4.182;2024-01-30T09:10:50;11.10;;;8.20;;
41903;SDS011;27586;51.124;4.182;2024-01-30T09:13:16;10.30;;;8.02;;
41903;SDS011;27586;51.124;4.182;2024-01-30T09:15:42;10.20;;;8.35;;
41903;SDS011;27586;51.124;4.182;2024-01-30T09:18:07;10.35;;;8.25;;
41903;SDS011;27586;51.124;4.182;2024-01-30T09:20:34;9.52;;;7.90;;
41903;SDS011;27586;51.124;4.182;2024-01-30T09:23:00;9.38;;;8.13;;
41903;SDS011;27586;51.124;4.182;2024-01-30T09:25:25;10.15;;;8.40;;
41903;SDS011;27586;51.124;4.182;2024-01-30T09:27:54;9.82;;;8.27;;
41903;SDS011;27586;51.124;4.182;2024-01-30T09:30:20;10.70;;;9.15;;
41903;SDS011;27586;51.124;4.182;2024-01-30T09:32:46;9.18;;;8.27;;
41903;SDS011;27586;51.124;4.182;2024-01-30T09:35:12;12.90;;;8.93;;
41903;SDS011;27586;51.124;4.182;2024-01-30T09:37:37;13.48;;;8.82;;
41903;SDS011;27586;51.124;4.182;2024-01-30T09:40:03;14.02;;;9.48;;
41903;SDS011;27586;51.124;4.182;2024-01-30T09:42:33;13.48;;;8.52;;
41903;SDS011;27586;51.124;4.182;2024-01-30T09:45:03;10.13;;;8.55;;
41903;SDS011;27586;51.124;4.182;2024-01-30T09:47:32;11.70;;;8.80;;
41903;SDS011;27586;51.124;4.182;2024-01-30T09:50:06;9.85;;;8.90;;
41903;SDS011;27586;51.124;4.182;2024-01-30T09:52:33;12.32;;;9.45;;
41903;SDS011;27586;51.124;4.182;2024-01-30T09:54:59;11.20;;;9.15;;
41903;SDS011;27586;51.124;4.182;2024-01-30T09:57:25;16.33;;;9.70;;
41903;SDS011;27586;51.124;4.182;2024-01-30T09:59:51;11.55;;;8.90;;
41903;SDS011;27586;51.124;4.182;2024-01-30T10:02:19;12.73;;;8.38;;
41903;SDS011;27586;51.124;4.182;2024-01-30T10:04:47;10.73;;;9.10;;
41903;SDS011;27586;51.124;4.182;2024-01-30T10:07:14;9.80;;;8.43;;
41903;SDS011;27586;51.124;4.182;2024-01-30T10:09:40;10.27;;;7.57;;
41903;SDS011;27586;51.124;4.182;2024-01-30T10:12:06;9.43;;;7.75;;
41903;SDS011;27586;51.124;4.182;2024-01-30T10:14:34;9.65;;;6.82;;
41903;SDS011;27586;51.124;4.182;2024-01-30T10:17:03;8.85;;;6.32;;
41903;SDS011;27586;51.124;4.182;2024-01-30T10:19:29;10.27;;;5.50;;
41903;SDS011;27586;51.124;4.182;2024-01-30T10:21:54;8.40;;;3.97;;
41903;SDS011;27586;51.124;4.182;2024-01-30T10:24:23;4.90;;;2.63;;
41903;SDS011;27586;51.124;4.182;2024-01-30T10:26:50;3.10;;;1.90;;
41903;SDS011;27586;51.124;4.182;2024-01-30T10:29:16;4.50;;;1.58;;
41903;SDS011;27586;51.124;4.182;2024-01-30T10:31:42;3.25;;;1.75;;
41903;SDS011;27586;51.124;4.182;2024-01-30T10:34:08;2.88;;;1.40;;
41903;SDS011;27586;51.124;4.182;2024-01-30T10:36:35;2.95;;;1.40;;
41903;SDS011;27586;51.124;4.182;2024-01-30T10:39:08;2.53;;;1.33;;
41903;SDS011;27586;51.124;4.182;2024-01-30T10:41:38;2.75;;;1.30;;
41903;SDS011;27586;51.124;4.182;2024-01-30T10:44:09;2.55;;;1.30;;
41903;SDS011;27586;51.124;4.182;2024-01-30T10:46:37;3.38;;;1.40;;
41903;SDS011;27586;51.124;4.182;2024-01-30T10:49:04;2.35;;;1.60;;
41903;SDS011;27586;51.124;4.182;2024-01-30T10:51:31;3.35;;;1.55;;
41903;SDS011;27586;51.124;4.182;2024-01-30T10:53:57;3.78;;;1.58;;
41903;SDS011;27586;51.124;4.182;2024-01-30T10:56:24;2.72;;;1.20;;
41903;SDS011;27586;51.124;4.182;2024-01-30T10:58:53;4.13;;;1.42;;
41903;SDS011;27586;51.124;4.182;2024-01-30T11:01:20;2.25;;;1.10;;
41903;SDS011;27586;51.124;4.182;2024-01-30T11:03:53;5.38;;;1.35;;
41903;SDS011;27586;51.124;4.182;2024-01-30T11:06:22;2.97;;;1.30;;
41903;SDS011;27586;51.124;4.182;2024-01-30T11:09:02;3.00;;;1.17;;
41903;SDS011;27586;51.124;4.182;2024-01-30T11:11:32;2.40;;;1.27;;
41903;SDS011;27586;51.124;4.182;2024-01-30T11:14:12;3.33;;;1.35;;
41903;SDS011;27586;51.124;4.182;2024-01-30T11:16:39;2.60;;;1.42;;
41903;SDS011;27586;51.124;4.182;2024-01-30T11:19:05;6.30;;;1.30;;
41903;SDS011;27586;51.124;4.182;2024-01-30T11:21:42;2.17;;;1.05;;
41903;SDS011;27586;51.124;4.182;2024-01-30T11:24:08;2.22;;;0.93;;
41903;SDS011;27586;51.124;4.182;2024-01-30T11:26:34;4.60;;;1.10;;
41903;SDS011;27586;51.124;4.182;2024-01-30T11:29:03;2.83;;;1.15;;
41903;SDS011;27586;51.124;4.182;2024-01-30T11:31:32;4.50;;;1.40;;
41903;SDS011;27586;51.124;4.182;2024-01-30T11:34:01;1.67;;;0.93;;
41903;SDS011;27586;51.124;4.182;2024-01-30T11:36:31;2.25;;;1.00;;
41903;SDS011;27586;51.124;4.182;2024-01-30T11:38:59;4.13;;;1.42;;
41903;SDS011;27586;51.124;4.182;2024-01-30T11:41:25;2.80;;;1.20;;
41903;SDS011;27586;51.124;4.182;2024-01-30T11:43:53;3.58;;;1.00;;
41903;SDS011;27586;51.124;4.182;2024-01-30T11:46:19;7.28;;;1.85;;
41903;SDS011;27586;51.124;4.182;2024-01-30T11:48:44;4.78;;;1.65;;
41903;SDS011;27586;51.124;4.182;2024-01-30T11:51:11;2.13;;;1.15;;
41903;SDS011;27586;51.124;4.182;2024-01-30T11:53:38;5.85;;;1.50;;
41903;SDS011;27586;51.124;4.182;2024-01-30T11:56:05;2.63;;;1.10;;
41903;SDS011;27586;51.124;4.182;2024-01-30T11:58:31;6.20;;;1.60;;
41903;SDS011;27586;51.124;4.182;2024-01-30T12:00:57;3.38;;;1.30;;
41903;SDS011;27586;51.124;4.182;2024-01-30T12:03:24;3.53;;;1.08;;
41903;SDS011;27586;51.124;4.182;2024-01-30T12:05:56;2.72;;;1.10;;
41903;SDS011;27586;51.124;4.182;2024-01-30T12:08:23;1.85;;;0.98;;
41903;SDS011;27586;51.124;4.182;2024-01-30T12:10:55;2.17;;;1.20;;
41903;SDS011;27586;51.124;4.182;2024-01-30T12:13:26;3.92;;;1.27;;
41903;SDS011;27586;51.124;4.182;2024-01-30T12:15:52;4.53;;;1.27;;
41903;SDS011;27586;51.124;4.182;2024-01-30T12:18:21;7.03;;;1.60;;
41903;SDS011;27586;51.124;4.182;2024-01-30T12:20:56;3.45;;;1.05;;
41903;SDS011;27586;51.124;4.182;2024-01-30T12:23:25;5.18;;;1.73;;
41903;SDS011;27586;51.124;4.182;2024-01-30T12:25:54;3.25;;;1.33;;
41903;SDS011;27586;51.124;4.182;2024-01-30T12:28:20;4.82;;;1.42;;
41903;SDS011;27586;51.124;4.182;2024-01-30T12:30:46;2.47;;;1.10;;
41903;SDS011;27586;51.124;4.182;2024-01-30T12:33:18;3.92;;;1.50;;
41903;SDS011;27586;51.124;4.182;2024-01-30T12:35:47;5.88;;;1.27;;
41903;SDS011;27586;51.124;4.182;2024-01-30T12:38:13;3.60;;;1.42;;
41903;SDS011;27586;51.124;4.182;2024-01-30T12:40:39;2.65;;;1.33;;
41903;SDS011;27586;51.124;4.182;2024-01-30T12:43:08;4.38;;;1.67;;
41903;SDS011;27586;51.124;4.182;2024-01-30T12:45:34;4.78;;;1.60;;
41903;SDS011;27586;51.124;4.182;2024-01-30T12:48:00;2.78;;;1.23;;
41903;SDS011;27586;51.124;4.182;2024-01-30T12:50:26;3.78;;;1.58;;
41903;SDS011;27586;51.124;4.182;2024-01-30T12:52:52;3.20;;;1.27;;
41903;SDS011;27586;51.124;4.182;2024-01-30T12:55:17;5.55;;;1.55;;
41903;SDS011;27586;51.124;4.182;2024-01-30T12:57:43;6.20;;;2.13;;
41903;SDS011;27586;51.124;4.182;2024-01-30T13:00:12;4.05;;;1.73;;
41903;SDS011;27586;51.124;4.182;2024-01-30T13:02:42;2.45;;;1.15;;
41903;SDS011;27586;51.124;4.182;2024-01-30T13:05:10;2.95;;;1.33;;
41903;SDS011;27586;51.124;4.182;2024-01-30T13:07:36;2.85;;;1.30;;
41903;SDS011;27586;51.124;4.182;2024-01-30T13:10:02;4.22;;;1.50;;
41903;SDS011;27586;51.124;4.182;2024-01-30T13:12:31;4.20;;;1.50;;
41903;SDS011;27586;51.124;4.182;2024-01-30T13:14:58;3.67;;;1.20;;
41903;SDS011;27586;51.124;4.182;2024-01-30T13:17:26;3.67;;;1.75;;
41903;SDS011;27586;51.124;4.182;2024-01-30T13:19:52;4.90;;;1.45;;
41903;SDS011;27586;51.124;4.182;2024-01-30T13:22:19;4.35;;;1.45;;
41903;SDS011;27586;51.124;4.182;2024-01-30T13:24:46;3.42;;;1.17;;
41903;SDS011;27586;51.124;4.182;2024-01-30T13:27:12;4.25;;;1.42;;
41903;SDS011;27586;51.124;4.182;2024-01-30T13:29:38;3.05;;;1.42;;
41903;SDS011;27586;51.124;4.182;2024-01-30T13:32:04;5.43;;;1.30;;
41903;SDS011;27586;51.124;4.182;2024-01-30T13:34:30;5.22;;;1.55;;
41903;SDS011;27586;51.124;4.182;2024-01-30T13:36:56;3.75;;;1.48;;
41903;SDS011;27586;51.124;4.182;2024-01-30T13:39:22;4.13;;;1.38;;
41903;SDS011;27586;51.124;4.182;2024-01-30T13:41:48;5.43;;;1.15;;
41903;SDS011;27586;51.124;4.182;2024-01-30T13:44:15;4.28;;;1.75;;
41903;SDS011;27586;51.124;4.182;2024-01-30T13:46:42;3.42;;;1.30;;
41903;SDS011;27586;51.124;4.182;2024-01-30T13:49:08;3.70;;;1.42;;
41903;SDS011;27586;51.124;4.182;2024-01-30T13:51:34;5.00;;;1.25;;
41903;SDS011;27586;51.124;4.182;2024-01-30T13:53:59;4.15;;;1.33;;
41903;SDS011;27586;51.124;4.182;2024-01-30T13:56:25;3.30;;;1.52;;
41903;SDS011;27586;51.124;4.182;2024-01-30T13:58:52;3.55;;;1.50;;
41903;SDS011;27586;51.124;4.182;2024-01-30T14:01:18;3.92;;;1.20;;
41903;SDS011;27586;51.124;4.182;2024-01-30T14:03:44;5.65;;;1.77;;
41903;SDS011;27586;51.124;4.182;2024-01-30T14:06:10;6.05;;;1.83;;
41903;SDS011;27586;51.124;4.182;2024-01-30T14:08:36;4.97;;;1.30;;
41903;SDS011;27586;51.124;4.182;2024-01-30T14:11:02;6.53;;;1.42;;
41903;SDS011;27586;51.124;4.182;2024-01-30T14:13:28;3.90;;;1.30;;
41903;SDS011;27586;51.124;4.182;2024-01-30T14:15:55;5.88;;;1.80;;
41903;SDS011;27586;51.124;4.182;2024-01-30T14:18:21;5.32;;;1.60;;
41903;SDS011;27586;51.124;4.182;2024-01-30T14:20:47;4.22;;;1.70;;
41903;SDS011;27586;51.124;4.182;2024-01-30T14:23:13;3.15;;;1.52;;
41903;SDS011;27586;51.124;4.182;2024-01-30T14:25:39;5.10;;;1.90;;
41903;SDS011;27586;51.124;4.182;2024-01-30T14:28:05;5.82;;;1.77;;
41903;SDS011;27586;51.124;4.182;2024-01-30T14:30:30;6.50;;;1.50;;
41903;SDS011;27586;51.124;4.182;2024-01-30T14:32:56;4.43;;;1.70;;
41903;SDS011;27586;51.124;4.182;2024-01-30T14:35:22;11.80;;;2.47;;
41903;SDS011;27586;51.124;4.182;2024-01-30T14:37:48;2.60;;;1.40;;
41903;SDS011;27586;51.124;4.182;2024-01-30T14:40:14;7.13;;;1.75;;
41903;SDS011;27586;51.124;4.182;2024-01-30T14:42:40;3.72;;;1.60;;